Time;durP1;ratioP1;P1;durP2;ratioP2;P2;SDS_P1;SDS_P2;PMS_P1;PMS_P2;Temp;Humidity;BMP_temperature;BMP_pressure;BME280_temperature;BME280_humidity;BME280_pressure;Samples;Min_cycle;Max_cycle;Signal;HPM_P1;HPM_P2
2021/03/21 00:02:22;;;;;;;27.30;14.23;;;;;;;4.67;79.80;100156.63;5092067;28;20438;-24
2021/03/21 00:04:48;;;;;;;39.28;19.58;;;;;;;5.04;78.57;100162.91;5110599;28;20433;-24
2021/03/21 00:07:13;;;;;;;22.10;12.48;;;;;;;5.11;78.10;100171.78;5091929;28;20031;-23
2021/03/21 00:09:39;;;;;;;23.00;12.32;;;;;;;4.82;78.72;100162.78;5110235;28;20399;-24
2021/03/21 00:12:05;;;;;;;47.53;20.48;;;;;;;4.69;78.90;100140.63;5110618;28;20410;-24
2021/03/21 00:14:31;;;;;;;30.27;16.17;;;;;;;4.98;78.64;100155.72;5109909;28;20047;-24
2021/03/21 00:16:58;;;;;;;29.60;15.57;;;;;;;5.07;78.07;100157.28;5110091;28;20439;-24
2021/03/21 00:19:23;;;;;;;27.75;15.75;;;;;;;5.07;77.81;100138.78;5109798;28;20027;-26
2021/03/21 00:21:49;;;;;;;30.90;17.17;;;;;;;5.23;77.14;100143.03;5109846;28;20263;-24
2021/03/21 00:24:14;;;;;;;28.05;15.65;;;;;;;5.04;77.83;100149.69;5109303;28;20024;-24
2021/03/21 00:26:40;;;;;;;23.48;13.18;;;;;;;5.14;77.87;100147.59;5109884;28;20028;-23
2021/03/21 00:29:06;;;;;;;21.95;13.00;;;;;;;4.79;78.85;100143.84;5109839;28;20024;-23
2021/03/21 00:31:31;;;;;;;23.77;13.82;;;;;;;4.60;79.72;100126.66;5091449;28;20031;-23
2021/03/21 00:33:57;;;;;;;25.77;14.75;;;;;;;4.63;79.39;100121.00;5110400;28;20040;-22
2021/03/21 00:36:22;;;;;;;26.42;14.75;;;;;;;4.68;79.54;100109.91;5109933;28;20038;-24
2021/03/21 00:38:50;;;;;;;24.77;13.50;;;;;;;4.53;79.83;100105.41;5109749;28;20024;-24
2021/03/21 00:41:18;;;;;;;23.20;13.75;;;;;;;4.59;78.86;100088.03;5109319;28;20031;-24
2021/03/21 00:43:44;;;;;;;29.25;15.88;;;;;;;4.80;78.90;100100.53;5091456;28;20027;-24
2021/03/21 00:46:10;;;;;;;22.75;14.30;;;;;;;4.43;78.14;100116.25;5109509;28;20166;-24
2021/03/21 00:48:37;;;;;;;25.15;13.27;;;;;;;4.36;79.00;100088.88;5109572;28;20051;-23
2021/03/21 00:51:03;;;;;;;20.42;11.75;;;;;;;4.15;78.27;100099.31;5109301;28;20028;-24
2021/03/21 00:53:29;;;;;;;18.35;11.63;;;;;;;4.11;78.04;100111.22;5109239;28;20051;-24
2021/03/21 00:55:54;;;;;;;16.08;10.50;;;;;;;3.93;78.02;100098.28;5109163;28;20074;-23
2021/03/21 00:58:20;;;;;;;18.63;11.15;;;;;;;3.85;78.30;100090.44;5109266;28;20032;-24
2021/03/21 01:00:51;;;;;;;17.38;9.98;;;;;;;3.85;78.33;100117.63;5109049;28;20035;-23
2021/03/21 01:03:17;;;;;;;18.40;11.07;;;;;;;3.90;77.54;100115.25;5108876;28;20052;-24
2021/03/21 01:05:47;;;;;;;14.57;9.30;;;;;;;3.81;77.91;100114.50;5109056;28;20032;-24
2021/03/21 01:08:27;;;;;;;16.85;9.95;;;;;;;3.85;77.87;100114.97;5091512;28;20038;-24
2021/03/21 01:11:11;;;;;;;18.73;10.38;;;;;;;3.83;77.49;100085.31;5108971;28;20035;-24
2021/03/21 01:13:36;;;;;;;18.77;10.77;;;;;;;3.92;77.59;100091.34;5109157;28;20042;-23
2021/03/21 01:16:06;;;;;;;17.15;10.55;;;;;;;4.01;76.35;100085.03;5108803;28;20031;-24
2021/03/21 01:18:32;;;;;;;18.20;11.27;;;;;;;3.76;76.75;100089.63;5109085;28;20062;-24
2021/03/21 01:20:58;;;;;;;17.33;10.45;;;;;;;3.68;77.34;100094.94;5108889;28;20022;-24
2021/03/21 01:23:23;;;;;;;16.02;9.95;;;;;;;3.60;78.48;100086.09;5108493;28;20135;-24
2021/03/21 01:25:49;;;;;;;19.65;11.48;;;;;;;3.80;77.57;100093.56;5108752;28;20509;-24
2021/03/21 01:28:33;;;;;;;19.83;11.23;;;;;;;3.94;76.92;100106.03;5108762;28;20027;-23
2021/03/21 01:30:59;;;;;;;18.40;11.45;;;;;;;3.80;77.26;100078.59;5108975;28;20024;-24
2021/03/21 01:33:26;;;;;;;17.98;9.88;;;;;;;3.75;77.03;100080.91;5108458;28;20059;-24
2021/03/21 01:35:52;;;;;;;19.85;11.73;;;;;;;3.98;77.39;100109.13;5108236;28;20020;-24
2021/03/21 01:38:18;;;;;;;18.40;10.85;;;;;;;4.02;76.64;100108.63;5108631;28;20475;-24
2021/03/21 01:40:44;;;;;;;19.27;11.32;;;;;;;4.10;77.00;100110.38;5073458;28;20027;-24
2021/03/21 01:43:13;;;;;;;19.20;11.35;;;;;;;4.08;77.12;100093.06;5090207;28;20023;-24
2021/03/21 01:45:39;;;;;;;18.67;11.02;;;;;;;4.21;77.25;100114.44;5090200;28;20635;-24
2021/03/21 01:48:18;;;;;;;18.77;10.50;;;;;;;4.30;76.32;100121.28;5108426;28;20059;-23
2021/03/21 01:50:50;;;;;;;18.58;11.15;;;;;;;4.40;76.36;100121.88;5092194;28;20168;-24
2021/03/21 01:53:17;;;;;;;20.23;11.38;;;;;;;4.43;76.17;100121.53;5073647;28;20023;-23
2021/03/21 01:55:43;;;;;;;18.02;10.80;;;;;;;4.29;76.45;100105.59;5108231;28;20050;-24
2021/03/21 01:58:09;;;;;;;19.55;11.10;;;;;;;4.21;76.69;100107.34;5108386;28;20380;-24
2021/03/21 02:00:36;;;;;;;19.88;12.43;;;;;;;4.14;77.18;100081.81;5073199;28;20414;-24
2021/03/21 02:03:01;;;;;;;20.75;12.48;;;;;;;4.05;77.15;100083.69;5108212;28;20055;-24
2021/03/21 02:05:27;;;;;;;20.55;11.98;;;;;;;4.05;77.78;100085.53;5090309;28;20027;-24
2021/03/21 02:08:01;;;;;;;20.98;13.00;;;;;;;4.32;77.26;100119.28;5090325;28;20039;-24
2021/03/21 02:10:33;;;;;;;23.15;12.18;;;;;;;4.06;77.86;100101.16;5108367;28;20024;-24
2021/03/21 02:12:58;;;;;;;21.40;11.93;;;;;;;4.40;77.30;100106.03;5108447;28;20080;-24
2021/03/21 02:15:53;;;;;;;20.58;12.70;;;;;;;4.62;76.30;100119.38;5107943;28;20024;-24
2021/03/21 02:18:29;;;;;;;24.60;13.02;;;;;;;4.42;76.96;100109.31;5062500;28;20043;-23
2021/03/21 02:21:07;;;;;;;23.48;14.32;;;;;;;4.10;77.96;100088.44;5090053;28;20043;-24
2021/03/21 02:23:40;;;;;;;24.35;14.45;;;;;;;3.96;78.18;100108.47;5108041;28;20036;-23
2021/03/21 02:26:54;;;;;;;25.67;15.50;;;;;;;3.85;78.98;100107.06;5089799;28;20026;-24
2021/03/21 02:29:47;;;;;;;25.70;14.30;;;;;;;3.71;79.39;100102.53;5093328;28;20067;-23
2021/03/21 02:32:18;;;;;;;24.00;14.52;;;;;;;3.56;79.64;100092.72;5107910;28;20024;-24
2021/03/21 02:34:46;;;;;;;24.52;15.27;;;;;;;3.76;79.70;100122.13;5089824;28;20380;-22
2021/03/21 02:37:17;;;;;;;27.70;14.95;;;;;;;3.85;79.53;100132.63;5089406;28;20042;-22
2021/03/21 02:40:24;;;;;;;27.55;15.63;;;;;;;3.83;78.75;100122.25;5089773;28;20031;-24
2021/03/21 02:43:20;;;;;;;26.42;15.43;;;;;;;3.94;78.38;100111.31;5106956;28;20380;-24
2021/03/21 02:45:49;;;;;;;24.20;13.38;;;;;;;3.83;77.69;100124.88;5082225;28;20048;-23
2021/03/21 02:48:32;;;;;;;26.33;14.77;;;;;;;3.91;77.33;100147.78;5077375;28;20030;-24
2021/03/21 02:51:04;;;;;;;24.33;14.35;;;;;;;3.85;77.38;100137.91;5077148;28;20084;-24
2021/03/21 02:53:53;;;;;;;24.40;14.48;;;;;;;3.97;77.33;100147.06;5076931;28;20031;-24
2021/03/21 02:56:28;;;;;;;27.05;16.40;;;;;;;4.04;77.18;100148.00;5093489;28;20023;-24
2021/03/21 02:58:56;;;;;;;26.33;14.80;;;;;;;3.83;78.23;100146.00;5076485;28;20072;-23
2021/03/21 03:01:38;;;;;;;26.10;14.93;;;;;;;3.85;77.18;100128.19;5092494;28;20066;-23
2021/03/21 03:04:10;;;;;;;23.83;14.13;;;;;;;3.95;77.96;100127.97;5094873;28;20034;-24
2021/03/21 03:06:38;;;;;;;27.67;13.88;;;;;;;3.73;77.99;100127.72;5076647;28;20499;-23
2021/03/21 03:09:18;;;;;;;25.15;14.82;;;;;;;3.61;78.55;100127.28;5076446;28;20031;-24
2021/03/21 03:11:51;;;;;;;26.02;14.52;;;;;;;3.79;78.21;100134.13;5094888;28;20023;-24
2021/03/21 03:14:20;;;;;;;27.77;15.70;;;;;;;3.82;77.95;100110.03;5093004;28;20023;-23
2021/03/21 03:17:04;;;;;;;24.83;14.98;;;;;;;3.93;77.01;100138.69;5111122;28;20027;-23
2021/03/21 03:20:14;;;;;;;24.55;15.57;;;;;;;3.69;77.86;100131.72;5111431;28;20031;-24
2021/03/21 03:22:39;;;;;;;25.85;15.27;;;;;;;3.61;78.67;100135.19;5065699;28;20031;-21
2021/03/21 03:25:05;;;;;;;26.33;14.75;;;;;;;3.76;77.41;100139.75;5111413;28;20034;-23
2021/03/21 03:27:47;;;;;;;26.80;14.13;;;;;;;3.31;78.15;100104.34;5110836;28;20020;-24
2021/03/21 03:30:18;;;;;;;24.83;12.98;;;;;;;3.36;77.73;100109.94;5077231;28;20054;-23
2021/03/21 03:32:43;;;;;;;26.95;14.95;;;;;;;3.52;78.25;100136.25;5093100;28;20796;-24
2021/03/21 03:35:11;;;;;;;23.15;13.25;;;;;;;3.43;77.37;100118.78;5092725;28;20110;-24
2021/03/21 03:37:37;;;;;;;25.67;14.00;;;;;;;3.70;77.14;100111.41;5092541;28;20103;-23
2021/03/21 03:40:05;;;;;;;20.67;13.27;;;;;;;3.69;75.95;100097.41;5110782;28;20287;-24
2021/03/21 03:43:25;;;;;;;22.25;13.55;;;;;;;3.84;76.54;100121.25;5110629;28;20027;-24
2021/03/21 03:46:09;;;;;;;25.30;13.45;;;;;;;3.75;77.45;100117.84;5027608;28;20437;-24
2021/03/21 03:48:43;;;;;;;21.90;13.07;;;;;;;3.46;77.48;100097.38;5085458;28;20047;-22
2021/03/21 03:51:10;;;;;;;22.65;12.80;;;;;;;3.38;78.36;100107.97;5093208;28;20027;-24
2021/03/21 03:54:12;;;;;;;21.40;11.95;;;;;;;3.45;77.65;100074.63;5110189;28;20036;-24
2021/03/21 03:56:51;;;;;;;24.42;13.05;;;;;;;3.65;76.97;100129.59;5094918;28;20040;-23
2021/03/21 03:59:28;;;;;;;20.48;13.13;;;;;;;3.44;78.30;100117.00;5091718;28;20069;-23
2021/03/21 04:02:11;;;;;;;24.27;14.33;;;;;;;3.33;78.96;100111.13;5110227;28;20079;-23
2021/03/21 04:04:52;;;;;;;38.72;25.75;;;;;;;3.29;78.54;100119.50;5110315;28;20798;-24
2021/03/21 04:07:34;;;;;;;23.10;12.93;;;;;;;3.36;78.84;100109.94;5110204;28;20505;-24
2021/03/21 04:10:21;;;;;;;77.05;45.50;;;;;;;3.56;77.90;100102.44;5094186;28;20032;-23
2021/03/21 04:13:08;;;;;;;39.03;22.83;;;;;;;3.31;78.67;100121.00;5094954;28;20494;-23
2021/03/21 04:15:35;;;;;;;32.55;22.05;;;;;;;3.09;79.03;100111.19;5091464;28;20402;-23
2021/03/21 04:18:23;;;;;;;22.23;13.10;;;;;;;3.24;79.66;100129.75;5091845;28;20108;-23
2021/03/21 04:20:53;;;;;;;21.25;13.20;;;;;;;3.27;79.26;100132.88;5091753;28;20039;-23
2021/03/21 04:23:25;;;;;;;21.45;11.90;;;;;;;3.32;79.26;100140.28;5091498;28;20049;-24
2021/03/21 04:25:54;;;;;;;20.75;12.82;;;;;;;3.17;79.58;100125.16;5058796;28;20059;-23
2021/03/21 04:28:25;;;;;;;22.25;13.55;;;;;;;3.55;79.18;100154.34;5075008;28;20031;-23
2021/03/21 04:30:55;;;;;;;21.55;12.63;;;;;;;3.57;78.35;100147.09;5091548;28;20460;-24
2021/03/21 04:33:25;;;;;;;20.92;13.25;;;;;;;3.57;78.72;100151.53;5091615;28;20106;-22
2021/03/21 04:36:06;;;;;;;17.75;11.70;;;;;;;3.32;79.78;100166.63;5074708;28;20510;-24
2021/03/21 04:38:37;;;;;;;15.27;9.77;;;;;;;3.30;78.68;100143.06;5076500;28;20092;-24
2021/03/21 04:41:04;;;;;;;17.05;11.23;;;;;;;3.27;79.51;100168.94;5091568;28;20057;-22
2021/03/21 04:43:36;;;;;;;20.65;13.52;;;;;;;3.25;79.05;100168.28;5091315;28;20028;-24
2021/03/21 04:46:05;;;;;;;18.25;13.20;;;;;;;3.34;79.31;100177.81;5074735;28;20030;-23
2021/03/21 04:48:31;;;;;;;19.38;12.35;;;;;;;3.19;79.32;100175.88;5074356;28;20057;-24
2021/03/21 04:51:01;;;;;;;17.10;10.70;;;;;;;3.15;78.68;100129.78;5091180;28;20119;-24
2021/03/21 04:53:38;;;;;;;20.00;12.32;;;;;;;3.02;79.73;100121.56;5090880;28;20031;-24
2021/03/21 04:56:10;;;;;;;16.73;11.15;;;;;;;2.99;79.92;100124.56;5091035;28;20560;-23
2021/03/21 04:58:41;;;;;;;18.08;11.45;;;;;;;2.85;80.49;100125.22;5074818;28;20111;-23
2021/03/21 05:01:13;;;;;;;17.55;12.07;;;;;;;2.87;79.16;100110.09;5073968;28;20034;-24
2021/03/21 05:03:48;;;;;;;17.00;10.98;;;;;;;2.98;79.16;100121.09;5074381;28;20047;-23
2021/03/21 05:06:15;;;;;;;24.17;17.15;;;;;;;3.10;79.27;100129.44;5091021;28;20027;-23
2021/03/21 05:08:59;;;;;;;70.03;52.45;;;;;;;3.20;79.32;100124.00;5090837;28;20024;-24
2021/03/21 05:11:40;;;;;;;34.25;28.67;;;;;;;2.98;78.32;100113.19;5090379;28;20024;-23
2021/03/21 05:14:09;;;;;;;24.70;18.13;;;;;;;2.97;79.81;100134.44;5090869;28;20040;-24
2021/03/21 05:16:50;;;;;;;37.60;25.08;;;;;;;2.66;80.38;100116.69;5074400;28;20063;-23
2021/03/21 05:19:17;;;;;;;25.02;16.42;;;;;;;2.65;80.39;100136.09;5075192;28;20046;-23
2021/03/21 05:21:55;;;;;;;20.00;13.50;;;;;;;2.63;80.16;100138.06;5090637;28;20015;-23
2021/03/21 05:24:27;;;;;;;20.30;13.25;;;;;;;2.59;80.92;100127.03;5090633;28;20031;-23
2021/03/21 05:27:18;;;;;;;21.17;12.90;;;;;;;2.71;80.57;100143.34;5057415;28;20031;-23
2021/03/21 05:30:16;;;;;;;24.33;16.88;;;;;;;3.01;79.76;100135.75;5086174;28;20123;-23
2021/03/21 05:32:42;;;;;;;25.00;17.73;;;;;;;2.97;78.93;100113.34;5090542;28;20032;-23
2021/03/21 05:35:10;;;;;;;48.10;34.15;;;;;;;3.00;79.74;100139.34;5073673;28;20036;-24
2021/03/21 05:37:58;;;;;;;32.75;23.02;;;;;;;2.63;79.78;100111.75;5073429;28;20490;-23
2021/03/21 05:40:42;;;;;;;25.92;18.08;;;;;;;2.70;80.74;100154.88;5091625;28;20052;-24
2021/03/21 05:43:49;;;;;;;21.00;13.85;;;;;;;2.74;79.65;100156.19;5108633;28;20106;-23
2021/03/21 05:46:53;;;;;;;24.48;15.05;;;;;;;2.75;80.72;100155.19;5107033;28;20054;-23
2021/03/21 05:49:55;;;;;;;28.90;19.58;;;;;;;2.71;80.35;100151.25;5056630;28;20051;-22
2021/03/21 05:52:33;;;;;;;29.85;20.65;;;;;;;2.68;80.62;100151.59;5108392;28;20027;-24
2021/03/21 05:55:12;;;;;;;41.37;25.70;;;;;;;2.91;79.84;100129.84;5108235;28;20028;-23
2021/03/21 05:58:05;;;;;;;26.50;17.00;;;;;;;2.88;79.76;100146.81;5091600;28;20027;-24
2021/03/21 06:01:06;;;;;;;51.38;32.75;;;;;;;2.96;79.51;100153.84;5108134;28;20032;-21
2021/03/21 06:03:55;;;;;;;23.10;15.13;;;;;;;2.94;79.20;100145.28;5090054;28;20426;-24
2021/03/21 06:06:39;;;;;;;22.45;14.27;;;;;;;2.87;80.61;100154.88;5108310;28;20092;-24
2021/03/21 06:09:23;;;;;;;30.30;22.27;;;;;;;3.04;79.32;100151.19;5108244;28;20027;-24
2021/03/21 06:12:14;;;;;;;24.45;16.17;;;;;;;3.02;78.85;100153.19;5091836;28;20098;-23
2021/03/21 06:14:47;;;;;;;24.52;16.00;;;;;;;2.92;78.75;100131.47;5091299;28;20045;-23
2021/03/21 06:17:27;;;;;;;25.15;16.02;;;;;;;3.18;78.48;100153.16;5107643;28;20036;-23
2021/03/21 06:20:30;;;;;;;25.40;16.40;;;;;;;3.07;79.32;100158.78;5089767;28;20088;-23
2021/03/21 06:23:19;;;;;;;38.58;20.67;;;;;;;3.07;79.45;100147.44;5111830;28;20050;-22
2021/03/21 06:25:51;;;;;;;46.85;24.48;;;;;;;3.01;80.07;100167.34;5112258;28;20034;-23
2021/03/21 06:28:38;;;;;;;34.05;22.55;;;;;;;2.89;79.62;100153.69;5112149;28;20035;-23
2021/03/21 06:31:28;;;;;;;24.15;13.88;;;;;;;3.02;80.25;100168.97;5112071;28;20442;-23
2021/03/21 06:34:09;;;;;;;36.90;23.83;;;;;;;3.20;79.19;100166.16;5112111;28;20487;-23
2021/03/21 06:36:41;;;;;;;42.85;28.65;;;;;;;3.19;79.76;100170.63;5112015;28;20110;-22
2021/03/21 06:39:57;;;;;;;23.02;16.58;;;;;;;3.00;79.59;100170.97;5093654;28;20081;-23
2021/03/21 06:42:33;;;;;;;21.65;12.52;;;;;;;3.07;79.01;100185.13;5068106;28;20482;-24
2021/03/21 06:45:29;;;;;;;21.88;13.48;;;;;;;2.89;79.85;100172.13;5093508;28;20031;-23
2021/03/21 06:48:18;;;;;;;41.63;26.83;;;;;;;3.08;80.13;100188.59;5111726;28;20063;-23
2021/03/21 06:51:02;;;;;;;23.50;13.23;;;;;;;3.26;79.30;100186.56;5093487;28;20028;-24
2021/03/21 06:53:42;;;;;;;23.98;12.80;;;;;;;3.26;78.80;100185.75;5093189;28;20034;-23
2021/03/21 06:56:14;;;;;;;21.52;12.35;;;;;;;3.16;79.55;100178.84;5112206;28;20035;-24
2021/03/21 06:59:04;;;;;;;26.13;13.20;;;;;;;3.10;79.66;100171.59;5111804;28;20455;-23
2021/03/21 07:01:40;;;;;;;24.08;12.40;;;;;;;3.09;79.72;100169.97;5110954;28;20464;-23
2021/03/21 07:04:17;;;;;;;25.83;14.95;;;;;;;2.85;80.91;100159.47;5111302;28;20131;-23
2021/03/21 07:06:45;;;;;;;23.23;13.13;;;;;;;3.03;80.76;100167.19;5076695;28;20578;-23
2021/03/21 07:09:45;;;;;;;39.38;23.33;;;;;;;3.02;79.85;100171.63;5111132;28;20032;-22
2021/03/21 07:12:29;;;;;;;22.20;12.02;;;;;;;3.00;79.89;100174.44;5110946;28;20080;-24
2021/03/21 07:15:20;;;;;;;27.13;14.82;;;;;;;2.99;79.08;100138.53;5111373;28;20031;-24
2021/03/21 07:18:04;;;;;;;19.05;11.82;;;;;;;3.05;79.86;100158.13;5095445;28;20035;-24
2021/03/21 07:20:54;;;;;;;14.38;8.88;;;;;;;3.15;79.75;100153.50;5086184;28;20064;-23
2021/03/21 07:23:38;;;;;;;13.88;7.90;;;;;;;3.20;79.26;100161.69;5110804;28;20036;-23
2021/03/21 07:26:19;;;;;;;13.65;9.68;;;;;;;3.13;80.05;100152.03;5092580;28;20055;-23
2021/03/21 07:29:15;;;;;;;20.40;13.90;;;;;;;3.58;77.85;100163.75;5110807;28;20561;-22
2021/03/21 07:31:46;;;;;;;19.83;16.73;;;;;;;3.76;77.85;100171.41;5077278;28;20080;-23
2021/03/21 07:34:30;;;;;;;18.85;11.75;;;;;;;3.91;76.78;100174.16;5110865;28;20037;-23
2021/03/21 07:36:59;;;;;;;23.42;15.90;;;;;;;3.91;76.98;100182.06;5092466;28;20031;-24
2021/03/21 07:39:41;;;;;;;22.65;12.52;;;;;;;3.60;78.49;100174.94;5110363;28;20031;-23
2021/03/21 07:43:00;;;;;;;29.02;18.58;;;;;;;3.48;78.89;100185.03;5076001;28;20067;-24
2021/03/21 07:45:38;;;;;;;71.22;34.40;;;;;;;3.30;79.69;100165.97;5007631;28;20513;-23
2021/03/21 07:48:18;;;;;;;48.77;24.07;;;;;;;3.46;78.36;100187.03;5110223;28;20047;-23
2021/03/21 07:51:05;;;;;;;43.33;20.23;;;;;;;3.50;78.23;100187.50;5110841;28;20028;-23
2021/03/21 07:53:34;;;;;;;167.75;57.33;;;;;;;3.65;78.09;100192.91;5110731;28;20096;-23
2021/03/21 07:56:07;;;;;;;33.03;15.65;;;;;;;3.51;77.75;100174.13;5092286;28;20024;-23
2021/03/21 07:58:36;;;;;;;43.67;19.15;;;;;;;3.48;78.08;100165.75;5093161;28;20023;-26
2021/03/21 08:01:01;;;;;;;;;;;;;;;3.68;77.73;100195.19;5110500;28;20034;-24
2021/03/21 08:03:33;;;;;;;151.48;53.65;;;;;;;3.82;77.95;100192.66;5109708;28;19919;-23
2021/03/21 08:05:59;;;;;;;241.38;79.57;;;;;;;3.91;77.79;100188.16;5075666;28;20042;-24
2021/03/21 08:08:27;;;;;;;221.38;76.40;;;;;;;4.12;76.93;100189.38;5110051;28;20402;-23
2021/03/21 08:10:56;;;;;;;259.60;89.82;;;;;;;3.69;77.54;100159.91;5110057;28;20027;-23
2021/03/21 08:13:36;;;;;;;193.07;68.03;;;;;;;3.67;77.04;100154.81;5109706;28;20035;-23
2021/03/21 08:16:02;;;;;;;359.20;152.52;;;;;;;4.01;77.52;100175.56;5092937;28;20096;-23
2021/03/21 08:18:31;;;;;;;197.65;79.25;;;;;;;4.07;76.87;100152.13;5091867;28;20452;-23
2021/03/21 08:21:01;;;;;;;34.50;17.80;;;;;;;4.12;76.83;100160.34;5091634;28;20487;-24
2021/03/21 08:23:43;;;;;;;127.70;66.10;;;;;;;4.03;76.94;100152.47;5109566;28;20157;-23
2021/03/21 08:26:13;;;;;;;98.63;36.63;;;;;;;3.91;76.56;100159.13;5109838;28;20020;-23
2021/03/21 08:29:00;;;;;;;150.40;51.50;;;;;;;3.74;78.25;100152.28;5109869;28;20028;-23
2021/03/21 08:31:34;;;;;;;36.30;24.17;;;;;;;3.79;76.54;100140.22;5109512;28;20475;-23
2021/03/21 08:34:38;;;;;;;128.48;68.18;;;;;;;4.07;78.08;100162.69;5109585;28;20161;-23
2021/03/21 08:37:31;;;;;;;39.20;23.33;;;;;;;3.96;76.94;100124.31;5091266;28;20019;-23
2021/03/21 08:40:18;;;;;;;30.55;18.70;;;;;;;3.83;77.91;100146.81;5109499;28;20372;-23
2021/03/21 08:42:45;;;;;;;47.20;22.85;;;;;;;3.71;79.39;100128.91;5093966;28;20119;-23
2021/03/21 08:45:19;;;;;;;44.67;30.00;;;;;;;4.21;78.62;100151.38;5073473;28;20038;-23
2021/03/21 08:47:45;;;;;;;30.08;17.63;;;;;;;4.29;76.91;100151.34;5109394;28;20023;-23
2021/03/21 08:50:40;;;;;;;59.60;32.83;;;;;;;4.15;78.05;100149.44;5090939;28;20031;-23
2021/03/21 08:53:05;;;;;;;63.33;30.40;;;;;;;4.19;77.23;100151.56;5074145;28;20138;-23
2021/03/21 08:55:33;;;;;;;99.10;43.45;;;;;;;4.35;76.79;100155.91;5108938;28;20035;-21
2021/03/21 08:58:01;;;;;;;202.02;80.03;;;;;;;4.35;77.50;100120.75;5091053;28;20129;-23
2021/03/21 09:00:26;;;;;;;187.63;79.35;;;;;;;4.57;77.01;100142.84;5091134;28;20036;-23
2021/03/21 09:02:52;;;;;;;30.48;20.92;;;;;;;4.25;77.49;100118.38;5108713;28;20055;-21
2021/03/21 09:05:19;;;;;;;32.35;26.95;;;;;;;4.49;77.12;100129.72;5091001;28;20062;-23
2021/03/21 09:07:51;;;;;;;13.02;7.93;;;;;;;4.37;76.63;100132.78;5074338;28;20023;-22
2021/03/21 09:10:29;;;;;;;27.50;23.20;;;;;;;4.18;76.44;100097.09;5108795;28;20023;-23
2021/03/21 09:13:01;;;;;;;24.88;16.70;;;;;;;4.36;77.46;100109.19;5108886;28;20036;-23
2021/03/21 09:15:30;;;;;;;38.20;34.08;;;;;;;4.56;76.61;100130.66;5109077;28;20036;-23
2021/03/21 09:18:17;;;;;;;24.70;12.13;;;;;;;4.52;76.57;100130.19;5108731;28;20066;-23
2021/03/21 09:21:03;;;;;;;16.30;10.27;;;;;;;4.32;77.60;100121.94;5108912;28;20051;-21
2021/03/21 09:23:30;;;;;;;24.17;16.70;;;;;;;4.13;77.74;100114.50;5107949;28;20036;-23
2021/03/21 09:25:57;;;;;;;47.88;24.17;;;;;;;4.34;77.37;100106.72;5108015;28;20089;-24
2021/03/21 09:28:24;;;;;;;32.38;16.80;;;;;;;4.30;77.01;100094.88;5107924;28;20038;-24
2021/03/21 09:30:50;;;;;;;39.58;23.52;;;;;;;4.32;77.72;100090.25;5073982;28;20798;-24
2021/03/21 09:33:37;;;;;;;18.23;12.52;;;;;;;4.21;77.59;100073.00;5073115;28;20471;-23
2021/03/21 09:36:02;;;;;;;35.47;23.45;;;;;;;4.21;78.11;100069.56;5108611;28;20080;-23
2021/03/21 09:38:31;;;;;;;70.45;40.78;;;;;;;4.27;78.98;100071.50;5090147;28;20114;-24
2021/03/21 09:41:04;;;;;;;22.95;14.18;;;;;;;4.26;77.77;100056.63;5073198;28;20815;-23
2021/03/21 09:43:34;;;;;;;46.63;31.73;;;;;;;4.29;77.41;100040.47;5108158;28;20046;-24
2021/03/21 09:46:06;;;;;;;41.40;27.42;;;;;;;4.39;77.71;100061.31;5108424;28;20027;-24
2021/03/21 09:48:37;;;;;;;19.38;13.23;;;;;;;4.26;76.65;100030.25;5108553;28;20112;-25
2021/03/21 09:51:16;;;;;;;44.78;30.58;;;;;;;4.33;77.03;100062.88;5090138;28;20047;-23
2021/03/21 09:54:07;;;;;;;33.20;19.83;;;;;;;4.21;79.06;100054.53;5108178;28;20039;-23
2021/03/21 09:56:41;;;;;;;21.98;14.82;;;;;;;4.24;78.15;100024.31;5107957;28;20030;-23
2021/03/21 09:59:25;;;;;;;46.67;27.98;;;;;;;4.75;78.71;100065.94;5108137;28;20130;-23
2021/03/21 10:02:02;;;;;;;29.55;17.95;;;;;;;4.66;77.86;100041.44;5108092;28;20054;-24
2021/03/21 10:04:37;;;;;;;43.35;26.65;;;;;;;4.95;77.18;100074.97;5074698;28;20036;-21
2021/03/21 10:07:16;;;;;;;28.02;17.20;;;;;;;4.89;77.15;100061.66;5090065;28;20486;-23
2021/03/21 10:09:43;;;;;;;33.58;22.73;;;;;;;5.08;76.46;100039.97;5074796;28;20152;-22
2021/03/21 10:12:09;;;;;;;17.15;11.73;;;;;;;5.13;77.38;100068.47;5073511;28;20887;-23
2021/03/21 10:14:35;;;;;;;34.72;24.77;;;;;;;4.98;76.98;100079.88;5090031;28;20136;-23
2021/03/21 10:17:16;;;;;;;19.98;11.95;;;;;;;5.04;76.00;100065.94;5107991;28;20123;-23
2021/03/21 10:19:45;;;;;;;22.65;14.88;;;;;;;5.06;77.58;100060.47;5091827;28;20443;-23
2021/03/21 10:22:16;;;;;;;;;;;;;;;5.27;75.94;100075.59;5108350;28;20032;-23
2021/03/21 10:24:42;;;;;;;27.63;18.20;;;;;;;5.03;77.13;100064.31;5107928;28;19912;-23
2021/03/21 10:27:24;;;;;;;59.80;32.95;;;;;;;5.26;75.83;100078.44;5089653;28;20036;-23
2021/03/21 10:30:14;;;;;;;64.35;43.40;;;;;;;5.24;74.59;100066.19;5107880;28;20081;-23
2021/03/21 10:32:44;;;;;;;20.13;15.05;;;;;;;4.96;76.95;100052.81;5107927;28;20043;-25
2021/03/21 10:35:21;;;;;;;15.77;12.27;;;;;;;4.82;77.11;100040.41;5107704;28;20372;-24
2021/03/21 10:37:47;;;;;;;20.87;17.77;;;;;;;5.01;76.30;100070.78;5107896;28;20422;-24
2021/03/21 10:40:24;;;;;;;15.75;12.05;;;;;;;5.06;76.57;100060.47;5107645;28;20034;-22
2021/03/21 10:43:03;;;;;;;20.90;16.13;;;;;;;5.22;76.18;100065.56;5107874;28;20034;-23
2021/03/21 10:45:52;;;;;;;28.67;18.50;;;;;;;5.07;76.49;100062.13;5089301;28;20051;-23
2021/03/21 10:48:17;;;;;;;32.45;20.80;;;;;;;4.94;77.07;100059.28;5077467;28;20461;-23
2021/03/21 10:50:46;;;;;;;22.67;15.85;;;;;;;5.06;76.03;100052.53;5089431;28;20036;-24
2021/03/21 10:53:22;;;;;;;55.50;37.55;;;;;;;5.06;76.75;100051.72;5107479;28;20837;-22
2021/03/21 10:56:20;;;;;;;36.95;21.05;;;;;;;4.97;76.48;100035.16;5107841;28;20156;-23
2021/03/21 10:58:45;;;;;;;75.82;40.92;;;;;;;4.86;77.34;100036.41;5089265;28;20027;-23
2021/03/21 11:01:20;;;;;;;49.50;28.20;;;;;;;4.87;76.91;100024.03;5107183;28;20043;-21
2021/03/21 11:03:55;;;;;;;51.92;29.88;;;;;;;4.95;77.01;100018.66;5107592;28;20502;-24
2021/03/21 11:06:21;;;;;;;121.38;54.45;;;;;;;5.03;77.37;99994.78;5107521;28;20031;-23
2021/03/21 11:08:47;;;;;;;77.38;45.28;;;;;;;4.93;77.12;100000.34;5110445;28;20031;-23
2021/03/21 11:11:20;;;;;;;27.92;17.25;;;;;;;5.12;75.98;99998.94;5111027;28;20072;-22
2021/03/21 11:13:45;;;;;;;88.05;45.58;;;;;;;5.16;76.52;99984.34;5111213;28;20104;-21
2021/03/21 11:16:12;;;;;;;84.47;48.17;;;;;;;5.38;76.76;99987.03;5111233;28;20855;-24
2021/03/21 11:18:38;;;;;;;75.65;43.97;;;;;;;5.30;77.01;99981.88;5111534;28;20026;-23
2021/03/21 11:21:15;;;;;;;41.25;29.42;;;;;;;5.54;76.21;99981.50;5111046;28;20035;-23
2021/03/21 11:23:48;;;;;;;38.65;26.30;;;;;;;5.32;76.95;99977.22;5092884;28;20028;-23
2021/03/21 11:26:26;;;;;;;29.15;21.58;;;;;;;5.47;76.67;99962.09;5110812;28;20110;-23
2021/03/21 11:29:03;;;;;;;31.95;27.00;;;;;;;5.50;76.32;99968.88;5106783;28;20518;-23
2021/03/21 11:31:34;;;;;;;17.15;14.38;;;;;;;5.41;75.46;99954.91;5094599;28;20089;-23
2021/03/21 11:34:19;;;;;;;40.45;30.05;;;;;;;5.61;76.02;99968.34;5090505;28;20109;-23
2021/03/21 11:36:45;;;;;;;28.98;20.83;;;;;;;5.39;76.26;99946.34;5072991;28;20020;-23
2021/03/21 11:39:26;;;;;;;49.58;41.30;;;;;;;5.60;77.31;99954.31;5101312;28;20035;-21
2021/03/21 11:41:51;;;;;;;47.38;40.17;;;;;;;5.72;74.80;99951.13;5092573;28;20034;-23
2021/03/21 11:44:24;;;;;;;41.75;31.17;;;;;;;5.60;74.71;99933.16;5110539;28;20027;-23
2021/03/21 11:46:50;;;;;;;42.92;36.35;;;;;;;5.70;75.67;99947.88;5075563;28;20513;-23
2021/03/21 11:49:16;;;;;;;35.58;27.02;;;;;;;5.82;76.41;99933.94;5110064;28;20023;-23
2021/03/21 11:51:43;;;;;;;21.23;17.02;;;;;;;5.63;75.95;99932.75;5092137;28;20027;-23
2021/03/21 11:54:16;;;;;;;20.75;16.52;;;;;;;5.78;76.61;99938.00;5092139;28;20028;-23
2021/03/21 11:56:56;;;;;;;49.35;34.47;;;;;;;5.66;76.94;99925.44;5075981;28;20529;-23
2021/03/21 11:59:57;;;;;;;46.22;33.70;;;;;;;5.52;76.10;99941.22;5109836;28;20036;-23